createdAt,value
2022-07-26T00:01:52.715Z,23.53
2022-07-26T00:04:19.425Z,23.42
2022-07-26T00:06:45.965Z,23.46
2022-07-26T00:09:12.623Z,23.39
2022-07-26T00:11:41.855Z,23.42
2022-07-26T00:14:08.974Z,23.45
2022-07-26T00:16:39.343Z,23.40
2022-07-26T00:19:10.038Z,23.39
2022-07-26T00:21:41.792Z,23.36
2022-07-26T00:24:09.293Z,23.33
2022-07-26T00:26:36.334Z,23.30
2022-07-26T00:29:04.973Z,23.25
2022-07-26T00:31:34.380Z,23.28
2022-07-26T00:34:03.870Z,23.18
2022-07-26T00:36:32.738Z,23.09
2022-07-26T00:38:59.301Z,23.13
2022-07-26T00:41:28.545Z,23.10
2022-07-26T00:44:00.282Z,23.04
2022-07-26T00:46:29.356Z,23.04
2022-07-26T00:48:56.109Z,23.02
2022-07-26T00:51:23.218Z,22.95
2022-07-26T00:53:50.299Z,23.01
2022-07-26T00:56:17.693Z,22.74
2022-07-26T00:58:45.236Z,22.85
2022-07-26T01:01:14.666Z,22.92
2022-07-26T01:03:41.995Z,22.85
2022-07-26T01:06:11.823Z,22.72
2022-07-26T01:08:38.940Z,22.75
2022-07-26T01:11:05.731Z,22.76
2022-07-26T01:13:35.353Z,22.74
2022-07-26T01:16:03.134Z,22.70
2022-07-26T01:18:29.761Z,22.66
2022-07-26T01:21:00.861Z,22.68
2022-07-26T01:23:28.454Z,22.63
2022-07-26T01:25:57.866Z,22.64
2022-07-26T01:28:26.441Z,22.61
2022-07-26T01:30:53.538Z,22.56
2022-07-26T01:33:22.351Z,22.44
2022-07-26T01:35:48.954Z,22.54
2022-07-26T01:38:15.538Z,22.54
2022-07-26T01:40:42.084Z,22.56
2022-07-26T01:43:08.651Z,22.52
2022-07-26T01:45:38.304Z,22.53
2022-07-26T01:48:05.493Z,22.50
2022-07-26T01:50:32.291Z,22.45
2022-07-26T01:53:01.429Z,22.55
2022-07-26T01:55:32.796Z,22.46
2022-07-26T01:58:00.554Z,22.49
2022-07-26T02:00:27.144Z,22.40
2022-07-26T02:02:56.011Z,22.43
2022-07-26T02:05:22.691Z,22.28
2022-07-26T02:07:49.535Z,22.21
2022-07-26T02:10:17.574Z,22.27
2022-07-26T02:12:44.509Z,22.27
2022-07-26T02:15:15.385Z,22.29
2022-07-26T02:17:43.008Z,22.24
2022-07-26T02:20:10.220Z,22.19
2022-07-26T02:22:39.495Z,22.06
2022-07-26T02:25:06.605Z,21.99
2022-07-26T02:27:35.367Z,22.03
2022-07-26T02:30:02.294Z,21.93
2022-07-26T02:32:28.880Z,21.96
2022-07-26T02:34:57.805Z,21.81
2022-07-26T02:37:24.737Z,21.72
2022-07-26T02:39:51.491Z,21.73
2022-07-26T02:42:20.619Z,21.59
2022-07-26T02:44:49.829Z,21.59
2022-07-26T02:47:16.465Z,21.54
2022-07-26T02:49:43.017Z,21.56
2022-07-26T02:52:09.580Z,21.64
2022-07-26T02:54:36.346Z,21.68
2022-07-26T02:57:02.907Z,21.60
2022-07-26T02:59:29.446Z,21.57
2022-07-26T03:01:56.049Z,21.64
2022-07-26T03:04:23.115Z,21.44
2022-07-26T03:06:52.171Z,21.63
2022-07-26T03:09:18.776Z,21.59
2022-07-26T03:11:48.298Z,21.66
2022-07-26T03:14:20.300Z,21.61
2022-07-26T03:16:49.312Z,21.64
2022-07-26T03:19:15.976Z,21.59
2022-07-26T03:21:47.431Z,21.71
2022-07-26T03:24:14.054Z,21.71
2022-07-26T03:26:45.123Z,21.48
2022-07-26T03:29:14.272Z,21.49
2022-07-26T03:31:43.434Z,21.45
2022-07-26T03:34:12.995Z,21.46
2022-07-26T03:36:40.534Z,21.35
2022-07-26T03:39:09.335Z,21.03
2022-07-26T03:41:36.065Z,20.79
2022-07-26T03:44:06.195Z,20.76
2022-07-26T03:46:35.741Z,20.79
2022-07-26T03:49:04.902Z,20.84
2022-07-26T03:51:34.065Z,20.78
2022-07-26T03:54:03.116Z,20.66
2022-07-26T03:56:31.657Z,20.72
2022-07-26T03:59:00.850Z,20.71
2022-07-26T04:01:27.627Z,20.79
2022-07-26T04:03:54.444Z,20.78
2022-07-26T04:06:23.226Z,20.78
2022-07-26T04:08:52.371Z,20.83
2022-07-26T04:11:19.474Z,20.85
2022-07-26T04:13:50.978Z,20.82
2022-07-26T04:16:17.986Z,20.63
2022-07-26T04:18:47.034Z,20.44
2022-07-26T04:21:13.703Z,20.50
2022-07-26T04:23:40.229Z,20.45
2022-07-26T04:26:06.959Z,20.07
2022-07-26T04:28:33.600Z,20.30
2022-07-26T04:31:02.872Z,20.39
2022-07-26T04:33:29.476Z,20.52
2022-07-26T04:36:00.936Z,20.58
2022-07-26T04:38:31.985Z,20.55
2022-07-26T04:40:58.598Z,20.44
2022-07-26T04:43:28.392Z,20.37
2022-07-26T04:46:00.573Z,20.14
2022-07-26T04:48:27.736Z,20.33
2022-07-26T04:50:56.671Z,20.34
2022-07-26T04:53:25.483Z,20.37
2022-07-26T04:55:52.016Z,20.52
2022-07-26T04:58:20.869Z,20.35
2022-07-26T05:01:09.140Z,20.20
2022-07-26T05:03:36.853Z,20.35
2022-07-26T05:06:03.458Z,20.39
2022-07-26T05:08:30.037Z,20.33
2022-07-26T05:10:58.911Z,20.46
2022-07-26T05:13:31.095Z,20.42
2022-07-26T05:15:59.510Z,20.45
2022-07-26T05:18:27.044Z,20.42
2022-07-26T05:20:56.166Z,20.56
2022-07-26T05:23:25.547Z,20.56
2022-07-26T05:25:55.394Z,20.72
2022-07-26T05:28:21.943Z,20.75
2022-07-26T05:30:48.825Z,20.76
2022-07-26T05:33:16.618Z,20.77
2022-07-26T05:35:43.584Z,20.80
2022-07-26T05:38:10.558Z,20.92
2022-07-26T05:40:37.155Z,20.88
2022-07-26T05:43:04.764Z,21.04
2022-07-26T05:45:31.632Z,21.07
2022-07-26T05:47:58.209Z,21.17
2022-07-26T05:50:27.349Z,21.16
2022-07-26T05:52:56.949Z,21.32
2022-07-26T05:55:26.562Z,21.36
2022-07-26T05:57:53.097Z,21.54
2022-07-26T06:00:20.869Z,21.79
2022-07-26T06:02:49.952Z,21.85
2022-07-26T06:05:18.801Z,21.77
2022-07-26T06:07:45.378Z,21.56
2022-07-26T06:10:12.007Z,21.63
2022-07-26T06:12:38.593Z,21.02
2022-07-26T06:15:15.077Z,20.81
2022-07-26T06:17:42.715Z,20.54
2022-07-26T06:20:10.010Z,20.31
2022-07-26T06:22:36.566Z,20.32
2022-07-26T06:25:08.374Z,20.37
2022-07-26T06:27:35.086Z,20.42
2022-07-26T06:30:04.452Z,20.73
2022-07-26T06:32:30.999Z,20.74
2022-07-26T06:35:00.969Z,20.95
2022-07-26T06:37:27.538Z,20.84
2022-07-26T06:39:54.161Z,21.05
2022-07-26T06:42:26.078Z,21.28
2022-07-26T06:44:55.118Z,21.23
2022-07-26T06:47:21.656Z,21.32
2022-07-26T06:49:48.257Z,21.36
2022-07-26T06:52:14.801Z,21.31
2022-07-26T06:54:41.364Z,21.20
2022-07-26T06:57:10.665Z,21.47
2022-07-26T06:59:37.202Z,22.15
2022-07-26T07:02:06.207Z,21.65
2022-07-26T07:04:33.914Z,21.47
2022-07-26T07:07:06.225Z,21.36
2022-07-26T07:09:33.615Z,21.71
2022-07-26T07:12:08.444Z,21.77
2022-07-26T07:14:37.790Z,22.00
2022-07-26T07:17:10.428Z,22.14
2022-07-26T07:19:40.297Z,21.96
2022-07-26T07:22:08.514Z,21.95
2022-07-26T07:24:35.095Z,21.67
2022-07-26T07:27:01.691Z,21.75
2022-07-26T07:29:29.253Z,21.94
2022-07-26T07:31:56.512Z,21.54
2022-07-26T07:34:23.822Z,21.73
2022-07-26T07:36:53.405Z,21.98
2022-07-26T07:39:21.063Z,22.24
2022-07-26T07:41:50.486Z,22.46
2022-07-26T07:44:17.130Z,22.80
2022-07-26T07:46:47.216Z,22.67
2022-07-26T07:49:14.079Z,22.93
2022-07-26T07:51:41.735Z,22.86
2022-07-26T07:54:10.897Z,22.76
2022-07-26T07:56:37.579Z,22.46
2022-07-26T07:59:04.595Z,22.51
2022-07-26T08:01:39.600Z,22.54
2022-07-26T08:04:09.909Z,22.48
2022-07-26T08:06:37.033Z,22.45
2022-07-26T08:09:06.912Z,22.15
2022-07-26T08:11:36.389Z,22.37
2022-07-26T08:14:10.820Z,22.55
2022-07-26T08:16:40.149Z,22.39
2022-07-26T08:19:09.551Z,22.56
2022-07-26T08:21:39.781Z,22.67
2022-07-26T08:24:10.806Z,22.77
2022-07-26T08:26:37.799Z,23.09
2022-07-26T08:29:04.971Z,22.93
2022-07-26T08:31:33.864Z,23.24
2022-07-26T08:34:00.696Z,23.60
2022-07-26T08:36:32.259Z,23.76
2022-07-26T08:38:59.196Z,23.94
2022-07-26T08:41:25.876Z,23.90
2022-07-26T08:43:55.146Z,24.00
2022-07-26T08:46:27.810Z,23.99
2022-07-26T08:48:57.379Z,23.84
2022-07-26T08:51:27.869Z,23.58
2022-07-26T08:54:04.668Z,23.94
2022-07-26T08:56:36.393Z,24.19
2022-07-26T08:59:18.758Z,24.07
2022-07-26T09:02:16.127Z,24.01
2022-07-26T09:04:47.330Z,23.67
2022-07-26T09:07:16.713Z,24.23
2022-07-26T09:09:55.420Z,24.48
2022-07-26T09:12:23.695Z,24.72
2022-07-26T09:14:52.392Z,24.83
2022-07-26T09:17:20.980Z,24.63
2022-07-26T09:20:05.035Z,24.02
2022-07-26T09:22:32.092Z,24.20
2022-07-26T09:24:58.808Z,24.06
2022-07-26T09:27:36.411Z,24.37
2022-07-26T09:30:08.305Z,24.18
2022-07-26T09:32:36.944Z,24.61
2022-07-26T09:35:50.841Z,24.84
2022-07-26T09:38:20.227Z,25.33
2022-07-26T09:40:50.837Z,25.87
2022-07-26T09:43:24.483Z,26.11
2022-07-26T09:46:07.458Z,26.74
2022-07-26T09:49:07.084Z,26.31
2022-07-26T09:51:46.371Z,26.09
2022-07-26T09:54:20.255Z,26.01
2022-07-26T09:56:50.005Z,25.79
2022-07-26T09:59:18.446Z,25.63
2022-07-26T10:01:46.444Z,25.23
2022-07-26T10:04:14.462Z,25.21
2022-07-26T10:06:42.393Z,25.48
2022-07-26T10:09:10.406Z,25.70
2022-07-26T10:11:49.625Z,25.86
2022-07-26T10:14:51.943Z,25.70
2022-07-26T10:17:40.841Z,25.64
2022-07-26T10:20:31.705Z,25.96
2022-07-26T10:22:58.826Z,26.33
2022-07-26T10:25:27.606Z,26.49
2022-07-26T10:27:57.914Z,27.30
2022-07-26T10:30:33.574Z,27.13
2022-07-26T10:33:12.873Z,27.05
2022-07-26T10:35:43.525Z,26.72
2022-07-26T10:38:12.497Z,26.47
2022-07-26T10:40:55.601Z,26.27
2022-07-26T10:43:41.789Z,26.10
2022-07-26T10:46:32.344Z,25.79
2022-07-26T10:49:04.652Z,25.63
2022-07-26T10:51:38.836Z,25.70
2022-07-26T10:54:11.240Z,25.62
2022-07-26T10:56:40.677Z,25.94
2022-07-26T10:59:12.107Z,26.30
2022-07-26T11:01:45.561Z,26.83
2022-07-26T11:04:22.033Z,27.41
2022-07-26T11:06:48.863Z,27.64
2022-07-26T11:09:16.113Z,28.22
2022-07-26T11:11:47.329Z,28.10
2022-07-26T11:14:17.587Z,28.32
2022-07-26T11:16:52.829Z,28.07
2022-07-26T11:19:27.633Z,27.27
2022-07-26T11:21:56.243Z,27.51
2022-07-26T11:24:23.041Z,27.61
2022-07-26T11:26:52.426Z,27.94
2022-07-26T11:29:35.135Z,28.04
2022-07-26T11:32:14.798Z,27.89
2022-07-26T11:34:45.325Z,28.28
2022-07-26T11:37:17.088Z,28.00
2022-07-26T11:39:43.620Z,28.33
2022-07-26T11:42:16.219Z,28.05
2022-07-26T11:44:47.364Z,27.68
2022-07-26T11:47:20.239Z,28.05
2022-07-26T11:50:00.287Z,27.85
2022-07-26T11:52:39.596Z,27.54
2022-07-26T11:55:07.426Z,27.58
2022-07-26T11:57:36.111Z,27.47
2022-07-26T12:00:07.035Z,27.85
2022-07-26T12:02:33.757Z,27.64
2022-07-26T12:05:16.305Z,27.83
2022-07-26T12:08:00.766Z,27.30
2022-07-26T12:10:30.697Z,26.74
2022-07-26T12:13:10.894Z,26.66
2022-07-26T12:15:49.644Z,26.46
2022-07-26T12:18:25.875Z,26.23
2022-07-26T12:21:07.423Z,25.98
2022-07-26T12:23:50.846Z,26.09
2022-07-26T12:26:29.191Z,26.28
2022-07-26T12:28:56.380Z,26.12
2022-07-26T12:31:34.205Z,26.49
2022-07-26T12:34:04.060Z,26.86
2022-07-26T12:36:33.980Z,27.44
2022-07-26T12:39:03.391Z,27.94
2022-07-26T12:41:40.088Z,28.16
2022-07-26T12:44:13.356Z,28.32
2022-07-26T12:46:40.159Z,28.49
2022-07-26T12:49:06.882Z,28.40
2022-07-26T12:51:36.967Z,28.25
2022-07-26T12:54:10.092Z,28.25
2022-07-26T12:56:37.289Z,28.48
2022-07-26T12:59:06.324Z,28.31
2022-07-26T13:01:35.428Z,28.69
2022-07-26T13:04:02.242Z,28.60
2022-07-26T13:06:28.874Z,28.55
2022-07-26T13:08:57.916Z,28.91
2022-07-26T13:11:26.928Z,28.91
2022-07-26T13:13:53.621Z,28.81
2022-07-26T13:16:22.627Z,29.00
2022-07-26T13:18:51.569Z,29.11
2022-07-26T13:21:20.535Z,29.09
2022-07-26T13:23:49.363Z,29.28
2022-07-26T13:26:15.905Z,29.26
2022-07-26T13:28:43.026Z,29.13
2022-07-26T13:31:10.077Z,29.51
2022-07-26T13:33:39.274Z,29.75
2022-07-26T13:36:05.871Z,29.62
2022-07-26T13:38:35.388Z,29.82
2022-07-26T13:41:05.336Z,29.59
2022-07-26T13:43:31.998Z,29.49
2022-07-26T13:45:58.861Z,28.73
2022-07-26T13:48:25.452Z,28.09
2022-07-26T13:50:57.464Z,28.49
2022-07-26T13:53:27.314Z,29.20
2022-07-26T13:55:53.855Z,28.75
2022-07-26T13:58:21.652Z,28.44
2022-07-26T14:00:49.965Z,29.01
2022-07-26T14:03:19.239Z,29.32
2022-07-26T14:05:45.889Z,29.07
2022-07-26T14:08:15.015Z,28.29
2022-07-26T14:10:41.737Z,28.05
2022-07-26T14:13:11.758Z,28.05
2022-07-26T14:15:43.171Z,28.74
2022-07-26T14:18:09.698Z,29.69
2022-07-26T14:20:36.481Z,29.42
2022-07-26T14:23:07.834Z,28.87
2022-07-26T14:25:39.126Z,28.28
2022-07-26T14:28:07.927Z,28.65
2022-07-26T14:30:35.631Z,28.97
2022-07-26T14:33:02.446Z,29.16
2022-07-26T14:35:31.596Z,28.67
2022-07-26T14:38:00.401Z,29.08
2022-07-26T14:40:26.944Z,28.93
2022-07-26T14:42:55.753Z,29.07
2022-07-26T14:45:22.373Z,29.20
2022-07-26T14:47:48.944Z,28.80
2022-07-26T14:50:15.682Z,29.02
2022-07-26T14:52:47.133Z,28.61
2022-07-26T14:55:15.208Z,29.01
2022-07-26T14:57:46.391Z,29.26
2022-07-26T15:00:15.677Z,29.75
2022-07-26T15:02:46.440Z,29.41
2022-07-26T15:05:19.145Z,29.01
2022-07-26T15:07:46.285Z,28.39
2022-07-26T15:10:18.039Z,27.95
2022-07-26T15:12:44.651Z,28.74
2022-07-26T15:15:12.008Z,28.86
2022-07-26T15:17:38.722Z,28.29
2022-07-26T15:20:06.302Z,27.58
2022-07-26T15:22:33.211Z,27.73
2022-07-26T15:25:00.200Z,27.93
2022-07-26T15:27:26.829Z,28.51
2022-07-26T15:29:53.579Z,29.01
2022-07-26T15:32:22.726Z,28.08
2022-07-26T15:34:49.356Z,28.14
2022-07-26T15:37:18.982Z,28.03
2022-07-26T15:39:45.529Z,27.90
2022-07-26T15:42:12.192Z,27.93
2022-07-26T15:44:44.518Z,27.81
2022-07-26T15:47:36.882Z,27.82
2022-07-26T15:50:07.346Z,27.81
2022-07-26T15:52:36.987Z,27.57
2022-07-26T15:55:03.917Z,27.36
2022-07-26T15:57:30.520Z,27.46
2022-07-26T16:00:02.385Z,27.06
2022-07-26T16:02:41.491Z,26.95
2022-07-26T16:05:08.651Z,27.16
2022-07-26T16:07:37.469Z,27.14
2022-07-26T16:10:04.790Z,27.15
2022-07-26T16:12:31.343Z,27.12
2022-07-26T16:15:00.352Z,27.11
2022-07-26T16:17:26.947Z,27.11
2022-07-26T16:19:53.559Z,26.97
2022-07-26T16:22:20.201Z,27.12
2022-07-26T16:24:49.029Z,26.99
2022-07-26T16:27:18.084Z,27.02
2022-07-26T16:29:51.800Z,26.89
2022-07-26T16:32:21.661Z,26.88
2022-07-26T16:34:48.441Z,26.97
2022-07-26T16:37:15.709Z,26.78
2022-07-26T16:39:47.179Z,26.87
2022-07-26T16:42:16.240Z,26.90
2022-07-26T16:44:42.842Z,27.01
2022-07-26T16:47:09.557Z,26.83
2022-07-26T16:49:36.157Z,26.73
2022-07-26T16:52:05.244Z,26.74
2022-07-26T16:54:32.975Z,26.66
2022-07-26T16:57:03.253Z,26.68
2022-07-26T16:59:34.815Z,26.47
2022-07-26T17:02:02.724Z,26.42
2022-07-26T17:04:32.612Z,26.33
2022-07-26T17:09:53.066Z,26.20
2022-07-26T17:12:25.024Z,26.16
2022-07-26T17:14:54.233Z,26.09
2022-07-26T17:17:25.548Z,26.04
2022-07-26T17:19:52.738Z,26.04
2022-07-26T17:22:20.082Z,25.93
2022-07-26T17:24:49.984Z,25.90
2022-07-26T17:27:21.084Z,25.87
2022-07-26T17:29:53.286Z,25.72
2022-07-26T17:32:20.440Z,25.62
2022-07-26T17:34:47.085Z,25.62
2022-07-26T17:37:13.861Z,25.61
2022-07-26T17:39:52.069Z,25.65
2022-07-26T17:42:19.684Z,25.54
2022-07-26T17:44:46.232Z,25.55
2022-07-26T17:47:28.344Z,25.59
2022-07-26T17:50:08.948Z,25.52
2022-07-26T17:52:44.138Z,25.44
2022-07-26T17:55:15.620Z,25.44
2022-07-26T17:57:44.392Z,25.20
2022-07-26T18:00:11.745Z,25.38
2022-07-26T18:02:38.341Z,25.10
2022-07-26T18:05:05.461Z,25.04
2022-07-26T18:07:32.134Z,24.97
2022-07-26T18:09:58.902Z,24.90
2022-07-26T18:12:28.231Z,25.02
2022-07-26T18:14:57.034Z,24.95
2022-07-26T18:17:23.968Z,24.95
2022-07-26T18:19:53.070Z,24.95
2022-07-26T18:22:19.863Z,24.87
2022-07-26T18:24:49.025Z,24.91
2022-07-26T18:27:15.608Z,24.85
2022-07-26T18:29:44.475Z,24.84
2022-07-26T18:32:11.493Z,24.74
2022-07-26T18:34:51.589Z,24.72
2022-07-26T18:37:22.340Z,24.60
2022-07-26T18:39:55.461Z,24.53
2022-07-26T18:42:26.555Z,24.49
2022-07-26T18:44:53.156Z,24.45
2022-07-26T18:47:19.732Z,24.38
2022-07-26T18:49:51.425Z,24.42
2022-07-26T18:52:32.030Z,24.33
2022-07-26T18:55:06.731Z,24.28
2022-07-26T18:57:35.477Z,24.32
2022-07-26T19:00:12.602Z,24.26
2022-07-26T19:02:41.481Z,24.27
2022-07-26T19:05:11.373Z,24.14
2022-07-26T19:07:40.780Z,24.13
2022-07-26T19:10:10.958Z,24.09
2022-07-26T19:12:38.091Z,24.05
2022-07-26T19:15:09.225Z,23.98
2022-07-26T19:17:35.964Z,23.95
2022-07-26T19:20:04.083Z,23.84
2022-07-26T19:22:33.080Z,23.79
2022-07-26T19:25:04.885Z,23.71
2022-07-26T19:27:33.702Z,23.68
2022-07-26T19:30:00.242Z,23.70
2022-07-26T19:32:33.521Z,23.64
2022-07-26T19:35:00.912Z,23.62
2022-07-26T19:37:27.440Z,23.63
2022-07-26T19:40:00.348Z,23.63
2022-07-26T19:42:30.496Z,23.52
2022-07-26T19:44:57.549Z,23.35
2022-07-26T19:47:26.876Z,23.39
2022-07-26T19:49:55.850Z,23.37
2022-07-26T19:52:27.708Z,23.30
2022-07-26T19:54:54.432Z,23.33
2022-07-26T19:57:21.501Z,23.20
2022-07-26T19:59:48.084Z,23.14
2022-07-26T20:02:14.827Z,23.11
2022-07-26T20:04:46.172Z,23.05
2022-07-26T20:07:15.948Z,23.09
2022-07-26T20:09:42.903Z,23.01
2022-07-26T20:12:11.947Z,22.89
2022-07-26T20:14:38.553Z,22.84
2022-07-26T20:17:11.842Z,22.62
2022-07-26T20:19:39.699Z,22.66
2022-07-26T20:22:06.330Z,22.66
2022-07-26T20:24:32.938Z,22.67
2022-07-26T20:26:59.584Z,22.49
2022-07-26T20:29:26.405Z,22.58
2022-07-26T20:31:57.447Z,22.64
2022-07-26T20:34:24.135Z,22.66
2022-07-26T20:36:50.779Z,22.54
2022-07-26T20:39:17.328Z,22.68
2022-07-26T20:41:43.922Z,22.60
2022-07-26T20:44:12.355Z,22.52
2022-07-26T20:46:44.997Z,22.60
2022-07-26T20:49:11.887Z,22.60
2022-07-26T20:51:43.519Z,22.21
2022-07-26T20:54:12.754Z,22.41
2022-07-26T20:56:43.143Z,22.35
2022-07-26T20:59:10.248Z,22.21
2022-07-26T21:01:37.618Z,22.19
2022-07-26T21:04:07.026Z,21.76
2022-07-26T21:06:33.873Z,21.54
2022-07-26T21:09:00.518Z,21.51
2022-07-26T21:11:37.976Z,21.60
2022-07-26T21:14:04.641Z,21.55
2022-07-26T21:16:31.285Z,21.35
2022-07-26T21:18:58.298Z,21.19
2022-07-26T21:21:26.498Z,21.11
2022-07-26T21:23:53.063Z,21.06
2022-07-26T21:26:19.690Z,20.98
2022-07-26T21:28:46.425Z,20.85
2022-07-26T21:31:15.041Z,20.77
2022-07-26T21:33:43.688Z,20.57
2022-07-26T21:36:10.320Z,20.45
2022-07-26T21:38:36.891Z,20.34
2022-07-26T21:41:06.230Z,20.24
2022-07-26T21:43:33.264Z,20.28
2022-07-26T21:46:06.700Z,20.27
2022-07-26T21:48:41.820Z,20.25
2022-07-26T21:51:08.807Z,20.29
2022-07-26T21:53:37.865Z,20.37
2022-07-26T21:56:06.155Z,20.48
2022-07-26T21:58:36.923Z,20.57
2022-07-26T22:01:08.681Z,20.64
2022-07-26T22:03:38.785Z,20.70
2022-07-26T22:06:06.429Z,20.74
2022-07-26T22:08:33.787Z,20.83
2022-07-26T22:11:02.850Z,20.66
2022-07-26T22:13:32.201Z,20.69
2022-07-26T22:16:01.298Z,20.81
2022-07-26T22:18:30.636Z,20.71
2022-07-26T22:20:57.268Z,20.71
2022-07-26T22:23:30.116Z,20.78
2022-07-26T22:25:59.109Z,20.79
2022-07-26T22:28:26.246Z,20.46
2022-07-26T22:30:55.044Z,20.48
2022-07-26T22:33:22.659Z,20.44
2022-07-26T22:35:49.651Z,20.57
2022-07-26T22:38:19.139Z,20.34
2022-07-26T22:40:47.919Z,20.44
2022-07-26T22:43:15.142Z,20.61
2022-07-26T22:45:44.072Z,20.44
2022-07-26T22:48:13.271Z,20.58
2022-07-26T22:50:39.978Z,20.63
2022-07-26T22:53:07.001Z,20.65
2022-07-26T22:55:36.531Z,20.57
2022-07-26T22:58:05.575Z,20.52
2022-07-26T23:00:34.448Z,20.55
2022-07-26T23:03:03.553Z,20.61
2022-07-26T23:05:45.234Z,20.50
2022-07-26T23:08:36.295Z,20.52
2022-07-26T23:10:59.336Z,20.44
2022-07-26T23:13:26.132Z,20.44
2022-07-26T23:15:56.765Z,20.29
2022-07-26T23:18:31.704Z,20.29
2022-07-26T23:20:58.366Z,20.16
2022-07-26T23:23:25.407Z,20.05
2022-07-26T23:25:59.374Z,19.98
2022-07-26T23:28:37.293Z,19.88
2022-07-26T23:31:11.017Z,19.58
2022-07-26T23:33:52.634Z,19.56
2022-07-26T23:36:25.726Z,19.60
2022-07-26T23:38:53.309Z,19.57
2022-07-26T23:41:22.517Z,19.58
2022-07-26T23:43:49.703Z,19.35
2022-07-26T23:46:18.820Z,19.41
2022-07-26T23:48:45.504Z,19.45
2022-07-26T23:51:14.838Z,19.41
2022-07-26T23:53:43.652Z,19.43
2022-07-26T23:56:10.255Z,19.29
2022-07-26T23:58:37.542Z,19.24
